Time;durP1;ratioP1;P1;durP2;ratioP2;P2;SDS_P1;SDS_P2;PMS_P1;PMS_P2;Temp;Humidity;BMP_temperature;BMP_pressure;BME280_temperature;BME280_humidity;BME280_pressure;Samples;Min_cycle;Max_cycle;Signal;HPM_P1;HPM_P2
2022/11/22 05:11:26;;;;;;;40.28;17.50;;;;;;;0.49;100.00;99444.41;5569279;31;175951;-86
2022/11/22 05:14:29;;;;;;;39.55;17.75;;;;;;;0.49;100.00;99444.41;5549248;32;33897;-86
2022/11/22 05:17:32;;;;;;;36.28;17.20;;;;;;;-0.03;100.00;99451.63;5547273;32;34084;-88
2022/11/22 05:20:35;;;;;;;32.85;16.35;;;;;;;-0.05;100.00;99448.22;5546243;32;34537;-88
2022/11/22 05:23:53;;;;;;;29.40;15.07;;;;;;;-0.15;100.00;99450.16;5550089;32;34074;-88
2022/11/22 05:26:56;;;;;;;26.60;14.40;;;;;;;-0.07;100.00;99449.97;5559911;32;33639;-88
2022/11/22 05:29:58;;;;;;;27.50;15.32;;;;;;;-0.21;100.00;99452.87;5548289;32;34345;-87
2022/11/22 05:33:01;;;;;;;26.50;14.52;;;;;;;-0.28;100.00;99441.72;5550643;32;34043;-90
2022/11/22 05:36:05;;;;;;;24.05;13.82;;;;;;;-0.34;100.00;99450.53;5559294;32;34785;-91
2022/11/22 05:39:08;;;;;;;26.23;13.55;;;;;;;-0.38;100.00;99459.28;5546238;32;33455;-91
2022/11/22 05:42:10;;;;;;;23.08;13.45;;;;;;;-0.47;100.00;99462.94;5545205;32;33644;-92
2022/11/22 05:45:13;;;;;;;22.40;12.85;;;;;;;-0.54;100.00;99471.75;5544431;32;33740;-88
2022/11/22 05:48:15;;;;;;;22.20;12.55;;;;;;;-0.62;100.00;99458.88;5544389;32;35004;-88
2022/11/22 05:51:20;;;;;;;24.87;13.30;;;;;;;-0.70;100.00;99459.00;5544430;32;33021;-88
2022/11/22 05:54:23;;;;;;;24.95;12.75;;;;;;;-0.62;100.00;99456.25;5545027;32;33911;-88
2022/11/22 05:57:26;;;;;;;26.77;14.02;;;;;;;-0.63;100.00;99456.28;5544075;32;34516;-88
2022/11/22 06:00:28;;;;;;;22.95;12.90;;;;;;;-0.60;100.00;99456.22;5543611;32;33765;-87
2022/11/22 06:03:31;;;;;;;25.02;14.50;;;;;;;-0.63;100.00;99456.28;5544515;32;34799;-87
2022/11/22 06:06:34;;;;;;;26.60;14.00;;;;;;;-0.56;100.00;99470.91;5544123;32;34572;-86
2022/11/22 06:09:37;;;;;;;23.55;14.02;;;;;;;-0.60;100.00;99469.25;5543206;32;33686;-86
2022/11/22 06:12:39;;;;;;;26.00;13.85;;;;;;;-0.59;100.00;99478.78;5543640;32;33852;-87
2022/11/22 06:15:42;;;;;;;25.90;14.30;;;;;;;-0.50;100.00;99482.97;5552972;32;34029;-86
2022/11/22 06:18:45;;;;;;;25.90;14.27;;;;;;;-0.42;100.00;99489.75;5555876;32;34734;-87
2022/11/22 06:21:48;;;;;;;25.00;14.00;;;;;;;-0.40;100.00;99494.94;5534533;32;33071;-88
2022/11/22 06:24:50;;;;;;;24.87;14.50;;;;;;;-0.29;100.00;99485.16;5532414;32;34018;-88
2022/11/22 06:27:56;;;;;;;29.90;14.00;;;;;;;-0.15;100.00;99482.28;5532297;32;34661;-87
2022/11/22 06:31:00;;;;;;;22.92;13.32;;;;;;;-0.01;100.00;99488.97;5530922;32;33682;-87
2022/11/22 06:34:04;;;;;;;25.37;13.68;;;;;;;0.13;100.00;99492.16;5534481;32;32626;-86
2022/11/22 06:37:06;;;;;;;22.92;13.68;;;;;;;0.23;100.00;99487.59;5545666;32;33650;-86
2022/11/22 06:40:10;;;;;;;21.70;12.55;;;;;;;0.28;100.00;99489.25;5536234;32;33863;-86
2022/11/22 06:43:13;;;;;;;23.55;13.65;;;;;;;0.29;100.00;99486.59;5533999;32;34383;-85
2022/11/22 06:46:18;;;;;;;26.67;15.02;;;;;;;0.25;100.00;99483.22;5534410;32;33897;-86
2022/11/22 06:49:20;;;;;;;25.42;14.93;;;;;;;0.28;100.00;99476.19;5531884;32;32710;-85
2022/11/22 06:52:24;;;;;;;24.65;14.35;;;;;;;0.42;100.00;99482.00;5532219;32;34014;-86
2022/11/22 06:55:26;;;;;;;27.15;14.90;;;;;;;0.59;100.00;99485.94;5531728;32;35545;-86
2022/11/22 06:58:50;;;;;;;23.73;13.95;;;;;;;0.63;100.00;99482.37;5524883;32;33278;-85
2022/11/22 07:01:53;;;;;;;25.50;13.62;;;;;;;0.68;100.00;99480.53;5521178;32;34650;-86
2022/11/22 07:04:56;;;;;;;25.25;14.73;;;;;;;0.80;100.00;99480.25;5523540;32;34431;-85
2022/11/22 07:08:19;;;;;;;23.42;13.98;;;;;;;0.85;100.00;99480.13;5524885;32;33799;-86
2022/11/22 07:11:25;;;;;;;24.40;13.77;;;;;;;0.87;100.00;99485.31;5523892;32;34177;-87
2022/11/22 07:14:27;;;;;;;25.20;14.48;;;;;;;0.98;100.00;99480.69;5519677;32;34900;-88
2022/11/22 07:17:30;;;;;;;25.00;14.50;;;;;;;1.03;100.00;99483.19;5525218;32;34306;-88
2022/11/22 07:20:33;;;;;;;24.00;14.48;;;;;;;1.05;100.00;99481.38;5538599;32;35242;-88
2022/11/22 07:23:37;;;;;;;22.77;13.20;;;;;;;1.07;100.00;99475.22;5532443;32;34018;-88
2022/11/22 07:26:40;;;;;;;23.27;13.80;;;;;;;1.26;100.00;99482.59;5567632;32;34174;-91
2022/11/22 07:29:43;;;;;;;24.73;14.00;;;;;;;1.23;100.00;99489.66;5560010;32;35227;-86
2022/11/22 07:32:47;;;;;;;23.23;14.45;;;;;;;1.20;100.00;99494.06;5547790;32;34894;-92
2022/11/22 07:35:49;;;;;;;26.37;14.23;;;;;;;1.14;100.00;99496.84;5550194;32;34826;-88
2022/11/22 07:38:52;;;;;;;26.23;13.13;;;;;;;1.26;100.00;99489.59;5548776;32;34004;-88
2022/11/22 07:41:55;;;;;;;23.85;12.75;;;;;;;1.36;100.00;99488.47;5545651;32;33998;-88
2022/11/22 07:44:58;;;;;;;24.05;12.82;;;;;;;1.41;100.00;99490.94;5540120;32;34429;-88
2022/11/22 07:48:01;;;;;;;22.50;12.50;;;;;;;1.37;100.00;99497.16;5540984;32;33578;-87
2022/11/22 07:51:05;;;;;;;22.80;12.45;;;;;;;1.44;100.00;99496.94;5542040;32;34488;-87
2022/11/22 07:54:11;;;;;;;22.40;12.52;;;;;;;1.39;100.00;99493.59;5545414;32;33584;-87
2022/11/22 07:57:13;;;;;;;21.02;12.57;;;;;;;1.55;100.00;99490.59;5554003;32;34268;-88
2022/11/22 08:00:20;;;;;;;24.65;12.75;;;;;;;1.67;100.00;99471.97;5545965;32;33662;-87
2022/11/22 08:03:23;;;;;;;23.23;12.20;;;;;;;1.80;100.00;99480.31;5542658;32;34133;-87
2022/11/22 08:06:30;;;;;;;20.48;11.27;;;;;;;1.79;100.00;99485.56;5552104;32;33541;-89
2022/11/22 08:09:34;;;;;;;21.42;12.37;;;;;;;1.80;100.00;99472.47;5536714;32;34067;-87
2022/11/22 08:12:36;;;;;;;21.98;11.60;;;;;;;1.99;100.00;99470.19;5528175;32;32689;-87
2022/11/22 08:15:39;;;;;;;26.02;12.63;;;;;;;2.12;100.00;99475.06;5544881;32;33877;-85
2022/11/22 08:18:46;;;;;;;22.52;12.88;;;;;;;2.45;100.00;99467.09;5541917;32;33982;-87
2022/11/22 08:21:49;;;;;;;23.77;12.55;;;;;;;2.46;100.00;99467.97;5541870;32;33134;-86
2022/11/22 08:24:59;;;;;;;23.95;13.20;;;;;;;2.52;100.00;99473.00;5523710;32;32363;-86
2022/11/22 08:28:02;;;;;;;22.95;12.55;;;;;;;2.57;100.00;99465.88;5524509;32;32507;-88
2022/11/22 08:31:09;;;;;;;22.50;12.98;;;;;;;2.48;100.00;99476.59;5542377;32;32850;-86
2022/11/22 08:34:12;;;;;;;24.05;12.18;;;;;;;2.62;100.00;99470.94;5527599;32;33407;-86
2022/11/22 08:37:14;;;;;;;21.00;11.60;;;;;;;2.66;100.00;99460.31;5516850;32;32445;-86
2022/11/22 08:40:17;;;;;;;24.20;12.45;;;;;;;2.77;100.00;99461.75;5539406;32;34323;-86
2022/11/22 08:43:20;;;;;;;20.50;11.35;;;;;;;2.91;100.00;99475.25;5539481;32;33781;-86
2022/11/22 08:46:23;;;;;;;24.20;12.35;;;;;;;2.74;100.00;99473.19;5543936;32;33988;-87
2022/11/22 08:49:25;;;;;;;20.90;11.25;;;;;;;2.87;100.00;99473.63;5534266;32;34842;-87
2022/11/22 08:52:28;;;;;;;20.33;11.30;;;;;;;2.75;100.00;99485.38;5547841;32;34098;-88
2022/11/22 08:55:30;;;;;;;20.25;11.07;;;;;;;2.69;100.00;99477.72;5543948;32;34253;-87
2022/11/22 08:58:34;;;;;;;21.55;11.43;;;;;;;2.93;100.00;99478.66;5541179;32;34910;-88
2022/11/22 09:01:37;;;;;;;24.12;12.02;;;;;;;3.03;100.00;99475.75;5537422;32;33961;-87
2022/11/22 09:04:40;;;;;;;21.40;12.00;;;;;;;3.02;100.00;99474.06;5535791;32;34081;-87
2022/11/22 09:07:42;;;;;;;22.37;12.05;;;;;;;3.14;100.00;99472.78;5562165;32;35138;-86
2022/11/22 09:11:11;;;;;;;22.65;11.63;;;;;;;3.20;100.00;99470.81;5528922;32;33948;-86
2022/11/22 09:14:14;;;;;;;20.83;11.25;;;;;;;3.20;100.00;99468.19;5535348;32;34089;-88
2022/11/22 09:17:16;;;;;;;24.65;13.18;;;;;;;3.15;100.00;99461.38;5542673;32;34777;-91
2022/11/22 09:20:21;;;;;;;25.67;12.77;;;;;;;3.15;100.00;99456.12;5535305;32;33897;-92
2022/11/22 09:23:27;;;;;;;26.60;12.65;;;;;;;3.23;100.00;99454.97;5517562;32;33119;-89
2022/11/22 09:29:59;;;;;;;25.00;12.70;;;;;;;3.37;100.00;99451.03;5540564;32;32321;-90
2022/11/22 09:33:02;;;;;;;22.77;12.45;;;;;;;3.27;100.00;99455.72;5536094;32;34736;-90
2022/11/22 09:36:11;;;;;;;23.40;12.73;;;;;;;3.20;100.00;99448.97;5538468;32;34159;-90
2022/11/22 09:39:14;;;;;;;23.67;12.85;;;;;;;3.41;100.00;99444.75;5535867;32;34044;-89
2022/11/22 09:42:50;;;;;;;26.00;13.68;;;;;;;3.38;100.00;99437.00;5576619;26;34603;-88
2022/11/22 09:50:02;;;;;;;26.77;14.40;;;;;;;3.50;100.00;99436.59;5599276;26;20092;-89
2022/11/22 09:53:27;;;;;;;29.30;14.38;;;;;;;3.55;100.00;99425.91;5542755;31;35578;-88
2022/11/22 09:56:31;;;;;;;26.70;14.40;;;;;;;3.60;100.00;99418.75;5586937;31;34588;-89
2022/11/22 09:59:42;;;;;;;25.48;13.65;;;;;;;3.77;100.00;99418.12;5589331;26;33124;-89
2022/11/22 10:02:53;;;;;;;25.27;13.62;;;;;;;3.74;100.00;99402.50;5556440;31;34207;-89
2022/11/22 10:06:12;;;;;;;29.45;14.63;;;;;;;3.80;100.00;99408.41;5570188;26;34556;-90
2022/11/22 10:16:46;;;;;;;26.80;14.50;;;;;;;4.32;100.00;99389.81;1666073;26;20099;-87
2022/11/22 10:20:00;;;;;;;30.12;14.77;;;;;;;4.84;100.00;99383.34;5539343;32;33544;-87
2022/11/22 10:23:13;;;;;;;33.70;16.70;;;;;;;5.22;100.00;99383.50;5569897;32;35022;-91
2022/11/22 10:26:27;;;;;;;28.02;15.25;;;;;;;5.47;100.00;99373.66;5563972;32;34696;-89
2022/11/22 10:48:41;;;;;;;27.62;15.07;;;;;;;5.26;100.00;99363.16;5379113;29;20420;-89
2022/11/22 11:06:44;;;;;;;31.20;16.65;;;;;;;4.87;100.00;99319.31;2461260;29;20160;-89
2022/11/22 11:10:16;;;;;;;33.00;17.15;;;;;;;4.92;100.00;99315.53;5551484;32;34784;-87
2022/11/22 11:13:40;;;;;;;36.05;17.80;;;;;;;4.78;100.00;99315.31;5548840;32;34125;-88
2022/11/22 11:16:44;;;;;;;31.05;16.83;;;;;;;4.81;100.00;99310.75;5533111;32;33612;-88
2022/11/22 11:19:48;;;;;;;36.42;18.85;;;;;;;4.85;100.00;99301.84;5534094;32;34395;-88
2022/11/22 11:22:51;;;;;;;33.00;17.90;;;;;;;4.79;100.00;99299.47;5524166;32;33213;-92
2022/11/22 11:26:23;;;;;;;36.20;18.40;;;;;;;4.79;100.00;99295.97;5532873;32;32463;-89
2022/11/22 11:29:43;;;;;;;34.20;17.87;;;;;;;4.97;100.00;99297.81;5547078;32;34814;-88
2022/11/22 11:32:52;;;;;;;39.28;18.65;;;;;;;4.84;100.00;99284.34;5539949;32;34126;-89
2022/11/22 11:36:17;;;;;;;35.58;17.77;;;;;;;4.72;100.00;99283.09;5536391;32;34027;-89
2022/11/22 11:39:45;;;;;;;35.28;18.75;;;;;;;4.67;100.00;99277.19;5546592;32;33764;-89
2022/11/22 11:42:48;;;;;;;35.05;18.37;;;;;;;4.74;100.00;99275.16;5540389;32;34152;-89
2022/11/22 11:45:51;;;;;;;38.58;19.70;;;;;;;4.82;100.00;99269.56;5539805;32;34600;-89
2022/11/22 11:49:07;;;;;;;42.28;19.52;;;;;;;4.76;100.00;99260.19;5544007;32;34328;-89
2022/11/22 11:52:20;;;;;;;36.90;19.30;;;;;;;4.54;100.00;99260.25;5548645;32;34170;-88
2022/11/22 11:55:24;;;;;;;37.42;19.98;;;;;;;4.74;100.00;99254.16;5537336;32;33861;-90
2022/11/22 11:58:26;;;;;;;37.95;20.02;;;;;;;4.77;100.00;99242.66;5522491;32;33882;-89
2022/11/22 12:08:41;;;;;;;40.47;20.12;;;;;;;4.99;100.00;99235.50;1629889;26;20381;-88
2022/11/22 12:11:50;;;;;;;40.75;19.85;;;;;;;4.95;100.00;99225.22;5602623;26;32509;-89
2022/11/22 12:18:42;;;;;;;38.25;20.67;;;;;;;5.13;100.00;99229.63;2462796;29;20247;-89
2022/11/22 12:21:51;;;;;;;43.38;21.77;;;;;;;4.98;100.00;99225.91;5558831;32;35185;-88
2022/11/22 12:25:06;;;;;;;44.80;22.92;;;;;;;4.87;100.00;99216.81;5560239;32;35129;-87
2022/11/22 12:28:30;;;;;;;44.88;21.67;;;;;;;4.89;100.00;99207.94;5535794;32;33036;-89
2022/11/22 12:31:41;;;;;;;41.53;20.65;;;;;;;4.64;100.00;99203.78;5560156;32;34620;-90
2022/11/22 12:34:44;;;;;;;41.53;20.67;;;;;;;4.62;100.00;99205.59;5557817;32;35343;-89
2022/11/22 12:37:53;;;;;;;43.92;21.37;;;;;;;4.68;100.00;99200.09;5551975;32;34592;-88
2022/11/22 12:41:01;;;;;;;42.45;21.00;;;;;;;4.65;100.00;99204.62;5551484;32;34182;-89
2022/11/22 12:44:11;;;;;;;40.08;20.60;;;;;;;4.69;100.00;99199.16;5546517;32;33929;-89
2022/11/22 12:47:21;;;;;;;41.97;21.15;;;;;;;4.75;100.00;99197.19;5520683;32;34366;-88
2022/11/22 12:50:43;;;;;;;45.17;21.23;;;;;;;4.66;100.00;99191.44;5542020;32;34004;-89
2022/11/22 12:53:46;;;;;;;41.53;21.40;;;;;;;4.68;100.00;99196.62;5520050;32;32204;-89
2022/11/22 12:56:59;;;;;;;44.08;20.75;;;;;;;4.61;100.00;99190.78;5546336;32;33961;-89
2022/11/22 13:00:23;;;;;;;43.80;21.70;;;;;;;4.58;100.00;99185.66;5544640;32;34284;-88
2022/11/22 13:03:34;;;;;;;38.30;20.52;;;;;;;4.57;100.00;99190.06;5550834;32;33743;-88
2022/11/22 13:06:55;;;;;;;43.67;20.77;;;;;;;4.53;100.00;99177.97;5545802;32;34201;-88
2022/11/22 13:10:07;;;;;;;44.47;21.12;;;;;;;4.54;100.00;99179.66;5548411;32;33569;-88
2022/11/22 13:13:40;;;;;;;35.08;18.95;;;;;;;4.62;100.00;99176.72;5548853;32;34063;-88
2022/11/22 13:16:43;;;;;;;33.33;17.37;;;;;;;4.53;100.00;99177.97;5544660;32;33716;-87
2022/11/22 13:19:54;;;;;;;33.70;18.02;;;;;;;4.49;100.00;99172.94;5550763;32;34337;-88
2022/11/22 13:23:18;;;;;;;32.03;17.80;;;;;;;4.45;100.00;99174.84;5574394;31;35286;-88
2022/11/22 13:26:49;;;;;;;35.28;16.52;;;;;;;4.43;100.00;99171.44;5579944;32;34354;-88
2022/11/22 13:29:55;;;;;;;34.03;16.52;;;;;;;4.25;100.00;99179.19;5579686;32;34245;-88
2022/11/22 13:32:59;;;;;;;34.53;15.80;;;;;;;4.22;100.00;99181.09;5569765;32;34422;-87
2022/11/22 13:36:22;;;;;;;29.33;15.93;;;;;;;4.11;100.00;99182.41;5568916;32;32535;-88
2022/11/22 13:39:25;;;;;;;32.03;16.50;;;;;;;3.99;100.00;99177.66;5566782;32;34158;-88
2022/11/22 13:42:28;;;;;;;30.88;15.93;;;;;;;4.03;100.00;99180.09;5566267;31;33638;-89
2022/11/22 13:45:44;;;;;;;32.33;15.65;;;;;;;4.02;100.00;99173.13;5577820;31;33756;-89
2022/11/22 13:48:50;;;;;;;31.30;15.88;;;;;;;3.98;100.00;99182.03;5572739;31;34562;-87
2022/11/22 13:51:55;;;;;;;28.70;15.52;;;;;;;3.93;100.00;99178.78;5578691;31;34612;-86
2022/11/22 13:55:02;;;;;;;34.03;16.23;;;;;;;3.86;100.00;99169.44;5572075;32;34294;-86
2022/11/22 13:58:23;;;;;;;30.58;15.02;;;;;;;3.78;100.00;99177.63;5568833;32;32943;-87
2022/11/22 14:01:35;;;;;;;25.60;14.05;;;;;;;3.55;100.00;99173.31;5569266;32;33973;-88
2022/11/22 14:04:53;;;;;;;29.02;15.40;;;;;;;3.52;100.00;99169.03;5569360;32;33835;-88
2022/11/22 14:07:57;;;;;;;29.95;15.10;;;;;;;3.54;100.00;99168.97;5577163;31;34691;-88
2022/11/22 14:11:02;;;;;;;29.95;15.73;;;;;;;3.44;100.00;99182.47;5577844;32;35165;-87
2022/11/22 14:14:16;;;;;;;33.38;15.98;;;;;;;3.45;100.00;99172.81;5570370;32;34426;-88
2022/11/22 14:17:34;;;;;;;27.92;14.68;;;;;;;3.38;100.00;99172.22;5558043;31;32648;-88
2022/11/22 14:21:34;;;;;;;28.08;14.23;;;;;;;3.51;100.00;99183.06;5576966;31;33645;-88
2022/11/22 14:25:02;;;;;;;30.62;15.45;;;;;;;3.34;100.00;99173.25;5572750;31;32851;-88
2022/11/22 14:28:22;;;;;;;36.80;17.40;;;;;;;3.33;100.00;99175.00;5585921;31;34739;-91
2022/11/22 14:31:29;;;;;;;31.05;15.25;;;;;;;3.32;100.00;99167.22;5597529;31;33670;-88
2022/11/22 14:34:32;;;;;;;28.87;15.00;;;;;;;3.32;100.00;99161.97;5599064;31;34207;-88
2022/11/22 14:37:44;;;;;;;29.10;15.50;;;;;;;3.28;100.00;99169.13;5588198;31;34149;-88
2022/11/22 14:40:47;;;;;;;29.50;16.15;;;;;;;3.28;100.00;99173.50;5588605;31;34535;-89
2022/11/22 14:43:52;;;;;;;31.42;15.55;;;;;;;3.21;100.00;99165.88;5587843;31;34015;-88
2022/11/22 14:47:02;;;;;;;29.65;15.43;;;;;;;3.26;100.00;99164.84;5590076;31;34002;-88
2022/11/22 14:50:14;;;;;;;31.27;15.48;;;;;;;3.24;100.00;99170.97;5586906;31;33813;-88
2022/11/22 14:53:38;;;;;;;30.25;16.12;;;;;;;3.34;100.00;99171.50;5601024;31;34774;-88
2022/11/22 14:56:42;;;;;;;25.73;13.93;;;;;;;3.23;100.00;99171.88;5587096;31;34338;-87
2022/11/22 15:00:03;;;;;;;27.15;14.95;;;;;;;3.31;100.00;99176.84;5588065;31;34168;-88
2022/11/22 15:03:35;;;;;;;32.00;15.07;;;;;;;3.19;100.00;99162.47;5574655;31;32556;-87
2022/11/22 15:07:07;;;;;;;28.10;14.87;;;;;;;3.19;100.00;99161.59;5558510;32;32473;-88
2022/11/22 15:11:01;;;;;;;27.75;15.20;;;;;;;3.22;100.00;99164.13;5585281;31;34060;-89
2022/11/22 15:14:32;;;;;;;28.35;14.82;;;;;;;3.27;100.00;99158.69;5556917;32;34327;-85
2022/11/22 15:17:38;;;;;;;27.08;14.13;;;;;;;3.24;100.00;99154.41;5553375;32;34622;-86
2022/11/22 15:21:23;;;;;;;29.50;15.05;;;;;;;3.22;100.00;99158.88;5554297;32;32531;-87
2022/11/22 15:24:51;;;;;;;28.90;14.87;;;;;;;3.28;100.00;99150.78;5567252;31;32619;-86
2022/11/22 15:28:16;;;;;;;30.55;15.60;;;;;;;3.22;100.00;99158.88;5570188;31;32519;-87
2022/11/22 15:31:40;;;;;;;30.02;14.85;;;;;;;3.13;100.00;99164.44;5585735;31;34441;-88
2022/11/22 15:35:03;;;;;;;26.30;13.23;;;;;;;3.08;100.00;99170.72;5575042;31;32680;-87
2022/11/22 15:38:30;;;;;;;27.40;14.45;;;;;;;3.09;100.00;99156.72;5585775;31;34818;-87
2022/11/22 15:41:55;;;;;;;29.83;14.95;;;;;;;3.16;100.00;99161.72;5587061;31;33828;-87
2022/11/22 15:45:20;;;;;;;28.75;14.60;;;;;;;3.07;100.00;99166.38;5573585;31;33785;-87
2022/11/22 15:48:45;;;;;;;29.25;14.87;;;;;;;3.14;100.00;99166.16;5587522;31;34564;-87
2022/11/22 15:52:29;;;;;;;27.20;13.73;;;;;;;3.21;100.00;99167.63;5586607;31;34363;-87
2022/11/22 15:56:16;;;;;;;28.75;14.32;;;;;;;3.05;100.00;99164.75;5589278;31;34078;-87
2022/11/22 15:59:45;;;;;;;27.08;14.15;;;;;;;3.02;100.00;99159.62;5579448;31;32355;-86
2022/11/22 16:02:51;;;;;;;29.40;14.70;;;;;;;3.03;100.00;99158.72;5598713;31;35115;-86
2022/11/22 16:06:02;;;;;;;27.33;13.98;;;;;;;3.06;100.00;99150.72;5598908;31;33717;-86
2022/11/22 16:09:26;;;;;;;26.77;13.20;;;;;;;3.17;100.00;99153.78;5590917;31;33828;-86
2022/11/22 16:12:35;;;;;;;28.87;15.05;;;;;;;3.13;100.00;99153.97;5599839;31;34764;-87
2022/11/22 16:15:38;;;;;;;24.42;13.75;;;;;;;3.17;100.00;99156.41;5603339;31;34965;-86
2022/11/22 16:18:43;;;;;;;27.10;14.63;;;;;;;3.28;100.00;99158.62;5578871;31;32730;-91
2022/11/22 16:21:56;;;;;;;25.95;14.00;;;;;;;3.21;100.00;99147.53;5589849;31;34117;-91
2022/11/22 16:25:27;;;;;;;28.77;14.27;;;;;;;3.17;100.00;99143.31;5589353;31;33949;-87
2022/11/22 16:28:32;;;;;;;26.07;14.30;;;;;;;3.20;100.00;99145.81;5576472;31;32755;-87
2022/11/22 16:31:38;;;;;;;25.33;13.85;;;;;;;3.17;100.00;99152.94;5599357;31;34847;-87
